sensor_id;sensor_type;location;lat;lon;timestamp;pressure;altitude;pressure_sealevel;temperature;humidity
43621;BME280;29213;50.770;7.298;2023-07-13T00:00:46;100825.75;;;18.53;38.77
43621;BME280;29213;50.770;7.298;2023-07-13T00:03:12;100625.91;;;17.23;39.43
43621;BME280;29213;50.770;7.298;2023-07-13T00:05:39;100788.50;;;18.16;39.71
43621;BME280;29213;50.770;7.298;2023-07-13T00:08:04;100704.19;;;17.55;39.39
43621;BME280;29213;50.770;7.298;2023-07-13T00:10:30;100820.41;;;18.26;39.34
43621;BME280;29213;50.770;7.298;2023-07-13T00:12:56;100758.25;;;17.81;39.85
43621;BME280;29213;50.770;7.298;2023-07-13T00:15:24;100827.22;;;18.22;39.72
43621;BME280;29213;50.770;7.298;2023-07-13T00:17:54;100795.97;;;17.94;39.98
43621;BME280;29213;50.770;7.298;2023-07-13T00:20:21;100650.53;;;16.93;39.25
43621;BME280;29213;50.770;7.298;2023-07-13T00:22:48;100785.78;;;17.69;39.44
43621;BME280;29213;50.770;7.298;2023-07-13T00:25:14;100754.09;;;17.51;39.81
43621;BME280;29213;50.770;7.298;2023-07-13T00:27:39;100825.81;;;17.86;40.03
43621;BME280;29213;50.770;7.298;2023-07-13T00:30:06;100833.69;;;17.87;39.66
43621;BME280;29213;50.770;7.298;2023-07-13T00:32:32;100820.00;;;17.75;39.76
43621;BME280;29213;50.770;7.298;2023-07-13T00:34:57;100676.13;;;16.82;39.61
43621;BME280;29213;50.770;7.298;2023-07-13T00:37:23;100769.41;;;17.37;40.01
43621;BME280;29213;50.770;7.298;2023-07-13T00:39:49;100775.63;;;17.38;40.79
43621;BME280;29213;50.770;7.298;2023-07-13T00:42:14;100817.91;;;17.64;41.25
43621;BME280;29213;50.770;7.298;2023-07-13T00:44:40;100708.84;;;16.86;41.37
43621;BME280;29213;50.770;7.298;2023-07-13T00:47:06;100824.50;;;17.55;41.11
43621;BME280;29213;50.770;7.298;2023-07-13T00:49:33;100812.50;;;17.44;41.47
43621;BME280;29213;50.770;7.298;2023-07-13T00:52:06;100820.56;;;17.44;41.41
43621;BME280;29213;50.770;7.298;2023-07-13T00:54:37;100748.63;;;16.97;41.62
43621;BME280;29213;50.770;7.298;2023-07-13T00:57:09;100747.19;;;16.94;42.19
43621;BME280;29213;50.770;7.298;2023-07-13T00:59:39;100816.59;;;17.26;41.98
43621;BME280;29213;50.770;7.298;2023-07-13T01:02:06;100739.63;;;16.76;41.93
43621;BME280;29213;50.770;7.298;2023-07-13T01:04:32;100751.19;;;16.70;42.17
43621;BME280;29213;50.770;7.298;2023-07-13T01:06:57;100784.81;;;16.88;42.08
43621;BME280;29213;50.770;7.298;2023-07-13T01:09:23;100748.00;;;16.53;42.45
43621;BME280;29213;50.770;7.298;2023-07-13T01:11:49;100770.97;;;16.55;42.85
43621;BME280;29213;50.770;7.298;2023-07-13T01:14:15;100781.13;;;16.60;42.82
43621;BME280;29213;50.770;7.298;2023-07-13T01:16:42;100569.19;;;15.24;43.06
43621;BME280;29213;50.770;7.298;2023-07-13T01:19:35;100785.41;;;16.48;43.41
43621;BME280;29213;50.770;7.298;2023-07-13T01:22:05;100832.50;;;16.72;43.45
43621;BME280;29213;50.770;7.298;2023-07-13T01:24:35;100710.84;;;15.86;43.85
43621;BME280;29213;50.770;7.298;2023-07-13T01:27:01;100813.09;;;16.41;43.71
43621;BME280;29213;50.770;7.298;2023-07-13T01:29:26;100689.97;;;15.59;43.72
43621;BME280;29213;50.770;7.298;2023-07-13T01:31:52;100660.75;;;15.43;43.76
43621;BME280;29213;50.770;7.298;2023-07-13T01:34:17;100781.28;;;16.10;44.36
43621;BME280;29213;50.770;7.298;2023-07-13T01:36:43;100805.94;;;16.20;44.36
43621;BME280;29213;50.770;7.298;2023-07-13T01:39:08;100827.50;;;16.27;44.59
43621;BME280;29213;50.770;7.298;2023-07-13T01:41:33;100824.34;;;16.23;44.81
43621;BME280;29213;50.770;7.298;2023-07-13T01:43:59;100774.06;;;15.88;44.69
43621;BME280;29213;50.770;7.298;2023-07-13T01:46:24;100827.44;;;16.20;44.80
43621;BME280;29213;50.770;7.298;2023-07-13T01:48:51;100780.84;;;15.84;44.78
43621;BME280;29213;50.770;7.298;2023-07-13T01:51:19;100818.19;;;16.01;44.93
43621;BME280;29213;50.770;7.298;2023-07-13T01:53:44;100813.94;;;15.92;45.23
43621;BME280;29213;50.770;7.298;2023-07-13T01:56:10;100834.69;;;15.98;45.27
43621;BME280;29213;50.770;7.298;2023-07-13T01:58:35;100801.19;;;15.72;45.56
43621;BME280;29213;50.770;7.298;2023-07-13T02:01:01;100764.84;;;15.47;45.50
43621;BME280;29213;50.770;7.298;2023-07-13T02:03:26;100720.22;;;15.03;45.68
43621;BME280;29213;50.770;7.298;2023-07-13T02:05:51;100821.22;;;15.69;45.69
43621;BME280;29213;50.770;7.298;2023-07-13T02:08:17;100735.38;;;15.11;45.97
43621;BME280;29213;50.770;7.298;2023-07-13T02:10:43;100687.47;;;14.70;46.30
43621;BME280;29213;50.770;7.298;2023-07-13T02:13:08;100817.31;;;15.50;46.19
43621;BME280;29213;50.770;7.298;2023-07-13T02:15:34;100786.66;;;15.22;46.39
43621;BME280;29213;50.770;7.298;2023-07-13T02:17:59;100785.59;;;15.17;46.60
43621;BME280;29213;50.770;7.298;2023-07-13T02:20:25;100801.78;;;15.23;46.63
43621;BME280;29213;50.770;7.298;2023-07-13T02:22:51;100826.69;;;15.39;46.72
43621;BME280;29213;50.770;7.298;2023-07-13T02:25:17;100826.34;;;15.27;46.97
43621;BME280;29213;50.770;7.298;2023-07-13T02:27:42;100830.06;;;15.26;47.20
43621;BME280;29213;50.770;7.298;2023-07-13T02:30:11;100789.59;;;14.91;47.14
43621;BME280;29213;50.770;7.298;2023-07-13T02:32:37;100840.63;;;15.13;47.67
43621;BME280;29213;50.770;7.298;2023-07-13T02:35:02;100851.94;;;15.08;47.76
43621;BME280;29213;50.770;7.298;2023-07-13T02:37:28;100803.13;;;14.82;47.89
43621;BME280;29213;50.770;7.298;2023-07-13T02:39:55;100780.22;;;14.65;47.99
43621;BME280;29213;50.770;7.298;2023-07-13T02:42:20;100562.72;;;13.19;47.79
43621;BME280;29213;50.770;7.298;2023-07-13T02:44:46;100846.81;;;14.98;47.95
43621;BME280;29213;50.770;7.298;2023-07-13T02:47:11;100813.75;;;14.76;48.07
43621;BME280;29213;50.770;7.298;2023-07-13T02:49:38;100763.66;;;14.46;48.30
43621;BME280;29213;50.770;7.298;2023-07-13T02:52:04;100816.69;;;14.81;48.18
43621;BME280;29213;50.770;7.298;2023-07-13T02:54:29;100771.97;;;14.51;48.41
43621;BME280;29213;50.770;7.298;2023-07-13T02:56:55;100656.97;;;13.74;48.30
43621;BME280;29213;50.770;7.298;2023-07-13T02:59:20;100818.56;;;14.65;48.55
43621;BME280;29213;50.770;7.298;2023-07-13T03:01:46;100686.22;;;13.91;48.39
43621;BME280;29213;50.770;7.298;2023-07-13T03:04:11;100700.91;;;13.95;48.23
43621;BME280;29213;50.770;7.298;2023-07-13T03:06:37;100663.31;;;13.73;48.77
43621;BME280;29213;50.770;7.298;2023-07-13T03:09:02;100767.66;;;14.35;48.72
43621;BME280;29213;50.770;7.298;2023-07-13T03:11:29;100694.63;;;13.88;48.95
43621;BME280;29213;50.770;7.298;2023-07-13T03:13:55;100793.53;;;14.43;48.89
43621;BME280;29213;50.770;7.298;2023-07-13T03:16:20;100849.72;;;14.81;49.05
43621;BME280;29213;50.770;7.298;2023-07-13T03:18:47;100848.03;;;14.80;49.12
43621;BME280;29213;50.770;7.298;2023-07-13T03:21:13;100867.00;;;14.79;48.88
43621;BME280;29213;50.770;7.298;2023-07-13T03:23:38;100628.66;;;13.27;49.23
43621;BME280;29213;50.770;7.298;2023-07-13T03:28:50;100807.38;;;14.47;49.57
43621;BME280;29213;50.770;7.298;2023-07-13T03:31:19;100835.84;;;14.63;49.53
43621;BME280;29213;50.770;7.298;2023-07-13T03:33:45;100722.91;;;13.90;49.75
43621;BME280;29213;50.770;7.298;2023-07-13T03:36:19;100872.81;;;14.82;49.72
43621;BME280;29213;50.770;7.298;2023-07-13T03:38:51;100703.59;;;13.80;49.81
43621;BME280;29213;50.770;7.298;2023-07-13T03:41:17;100794.25;;;14.37;50.11
43621;BME280;29213;50.770;7.298;2023-07-13T03:43:42;100788.63;;;14.32;50.17
43621;BME280;29213;50.770;7.298;2023-07-13T03:46:08;100750.88;;;14.03;50.34
43621;BME280;29213;50.770;7.298;2023-07-13T03:48:34;100753.72;;;14.01;50.25
43621;BME280;29213;50.770;7.298;2023-07-13T03:50:59;100817.44;;;14.45;50.57
43621;BME280;29213;50.770;7.298;2023-07-13T03:53:25;100877.53;;;14.80;51.00
43621;BME280;29213;50.770;7.298;2023-07-13T03:55:51;100845.34;;;14.50;51.00
43621;BME280;29213;50.770;7.298;2023-07-13T03:58:44;100848.22;;;14.64;50.86
43621;BME280;29213;50.770;7.298;2023-07-13T04:01:10;100881.88;;;14.81;51.22
43621;BME280;29213;50.770;7.298;2023-07-13T04:03:36;100885.19;;;14.83;51.22
43621;BME280;29213;50.770;7.298;2023-07-13T04:06:04;100878.81;;;14.85;51.24
43621;BME280;29213;50.770;7.298;2023-07-13T04:08:33;100869.59;;;14.72;51.08
43621;BME280;29213;50.770;7.298;2023-07-13T04:11:01;100881.31;;;14.86;51.10
43621;BME280;29213;50.770;7.298;2023-07-13T04:13:27;100771.88;;;14.14;51.50
43621;BME280;29213;50.770;7.298;2023-07-13T04:15:53;100885.94;;;14.92;51.30
43621;BME280;29213;50.770;7.298;2023-07-13T04:18:19;100885.59;;;14.95;51.73
43621;BME280;29213;50.770;7.298;2023-07-13T04:20:46;100884.34;;;14.98;51.67
43621;BME280;29213;50.770;7.298;2023-07-13T04:23:12;100709.56;;;13.82;51.55
43621;BME280;29213;50.770;7.298;2023-07-13T04:25:38;100896.22;;;15.04;52.29
43621;BME280;29213;50.770;7.298;2023-07-13T04:28:04;100895.22;;;15.05;51.37
43621;BME280;29213;50.770;7.298;2023-07-13T04:30:29;100814.28;;;14.56;50.98
43621;BME280;29213;50.770;7.298;2023-07-13T04:32:55;100840.81;;;14.81;50.50
43621;BME280;29213;50.770;7.298;2023-07-13T04:35:20;100887.25;;;15.12;50.40
43621;BME280;29213;50.770;7.298;2023-07-13T04:37:48;100852.84;;;14.85;50.29
43621;BME280;29213;50.770;7.298;2023-07-13T04:40:18;100811.81;;;14.69;49.97
43621;BME280;29213;50.770;7.298;2023-07-13T04:42:44;100710.47;;;14.13;49.57
43621;BME280;29213;50.770;7.298;2023-07-13T04:45:12;100844.59;;;15.02;49.12
43621;BME280;29213;50.770;7.298;2023-07-13T04:47:38;100795.16;;;14.74;49.37
43621;BME280;29213;50.770;7.298;2023-07-13T04:50:05;100747.75;;;14.45;48.87
43621;BME280;29213;50.770;7.298;2023-07-13T04:52:30;100873.81;;;15.27;48.98
43621;BME280;29213;50.770;7.298;2023-07-13T04:54:57;100835.16;;;15.06;48.92
43621;BME280;29213;50.770;7.298;2023-07-13T04:57:22;100866.78;;;15.26;48.71
43621;BME280;29213;50.770;7.298;2023-07-13T04:59:47;100817.44;;;15.05;48.48
43621;BME280;29213;50.770;7.298;2023-07-13T05:02:13;100779.16;;;14.81;48.00
43621;BME280;29213;50.770;7.298;2023-07-13T05:04:38;100676.31;;;14.15;48.58
43621;BME280;29213;50.770;7.298;2023-07-13T05:07:05;100829.53;;;15.16;49.37
43621;BME280;29213;50.770;7.298;2023-07-13T05:09:31;100852.97;;;15.29;49.16
43621;BME280;29213;50.770;7.298;2023-07-13T05:11:56;100898.34;;;15.60;48.80
43621;BME280;29213;50.770;7.298;2023-07-13T05:14:22;100627.59;;;13.96;48.43
43621;BME280;29213;50.770;7.298;2023-07-13T05:16:47;100867.84;;;15.46;48.16
43621;BME280;29213;50.770;7.298;2023-07-13T05:19:13;100846.94;;;15.42;47.90
43621;BME280;29213;50.770;7.298;2023-07-13T05:21:38;100828.09;;;15.35;47.82
43621;BME280;29213;50.770;7.298;2023-07-13T05:24:04;100882.94;;;15.69;47.69
43621;BME280;29213;50.770;7.298;2023-07-13T05:26:29;100903.78;;;15.89;47.69
43621;BME280;29213;50.770;7.298;2023-07-13T05:28:54;100881.41;;;15.82;47.78
43621;BME280;29213;50.770;7.298;2023-07-13T05:31:20;100791.66;;;15.26;47.46
43621;BME280;29213;50.770;7.298;2023-07-13T05:33:45;100859.81;;;15.68;46.99
43621;BME280;29213;50.770;7.298;2023-07-13T05:36:10;100886.19;;;15.86;46.96
43621;BME280;29213;50.770;7.298;2023-07-13T05:38:36;100760.41;;;15.18;47.09
43621;BME280;29213;50.770;7.298;2023-07-13T05:41:01;100930.22;;;16.29;47.07
43621;BME280;29213;50.770;7.298;2023-07-13T05:43:27;100873.63;;;15.87;47.47
43621;BME280;29213;50.770;7.298;2023-07-13T05:45:54;100899.53;;;16.16;47.25
43621;BME280;29213;50.770;7.298;2023-07-13T05:48:20;100937.41;;;16.50;46.81
43621;BME280;29213;50.770;7.298;2023-07-13T05:50:45;100894.88;;;16.32;46.86
43621;BME280;29213;50.770;7.298;2023-07-13T05:53:12;100940.84;;;16.66;46.81
43621;BME280;29213;50.770;7.298;2023-07-13T05:55:42;100916.84;;;16.64;46.69
43621;BME280;29213;50.770;7.298;2023-07-13T05:58:08;100865.97;;;16.34;46.66
43621;BME280;29213;50.770;7.298;2023-07-13T06:00:33;100865.38;;;16.39;46.35
43621;BME280;29213;50.770;7.298;2023-07-13T06:02:59;100910.47;;;16.72;46.37
43621;BME280;29213;50.770;7.298;2023-07-13T06:05:24;100950.03;;;17.07;45.78
43621;BME280;29213;50.770;7.298;2023-07-13T06:07:49;100891.06;;;16.77;46.12
43621;BME280;29213;50.770;7.298;2023-07-13T06:10:15;100901.19;;;17.03;45.37
43621;BME280;29213;50.770;7.298;2023-07-13T06:12:40;100867.09;;;16.82;45.82
43621;BME280;29213;50.770;7.298;2023-07-13T06:15:06;100856.13;;;16.83;45.64
43621;BME280;29213;50.770;7.298;2023-07-13T06:17:33;100897.50;;;17.18;45.54
43621;BME280;29213;50.770;7.298;2023-07-13T06:19:59;100892.78;;;17.27;45.66
43621;BME280;29213;50.770;7.298;2023-07-13T06:22:24;100862.28;;;17.13;45.67
43621;BME280;29213;50.770;7.298;2023-07-13T06:24:50;100953.88;;;17.82;45.23
43621;BME280;29213;50.770;7.298;2023-07-13T06:27:16;100965.47;;;17.89;45.17
43621;BME280;29213;50.770;7.298;2023-07-13T06:29:41;100903.44;;;17.55;44.99
43621;BME280;29213;50.770;7.298;2023-07-13T06:32:10;100966.53;;;17.95;44.93
43621;BME280;29213;50.770;7.298;2023-07-13T06:34:36;100938.97;;;17.86;45.05
43621;BME280;29213;50.770;7.298;2023-07-13T06:37:01;100964.69;;;18.09;45.12
43621;BME280;29213;50.770;7.298;2023-07-13T06:39:26;100938.97;;;17.99;44.86
43621;BME280;29213;50.770;7.298;2023-07-13T06:41:52;100822.78;;;17.20;44.35
43621;BME280;29213;50.770;7.298;2023-07-13T06:44:17;100917.81;;;17.83;44.34
43621;BME280;29213;50.770;7.298;2023-07-13T06:46:42;100956.63;;;18.09;44.20
43621;BME280;29213;50.770;7.298;2023-07-13T06:49:09;100964.69;;;18.22;43.75
43621;BME280;29213;50.770;7.298;2023-07-13T06:51:34;100875.69;;;17.61;43.44
43621;BME280;29213;50.770;7.298;2023-07-13T06:54:00;100917.19;;;17.94;44.06
43621;BME280;29213;50.770;7.298;2023-07-13T06:56:25;100908.72;;;17.97;44.43
43621;BME280;29213;50.770;7.298;2023-07-13T06:58:50;100957.66;;;18.28;43.77
43621;BME280;29213;50.770;7.298;2023-07-13T07:01:16;100926.75;;;18.17;44.22
43621;BME280;29213;50.770;7.298;2023-07-13T07:03:41;100971.34;;;18.47;44.09
43621;BME280;29213;50.770;7.298;2023-07-13T07:06:19;100972.81;;;18.49;44.10
43621;BME280;29213;50.770;7.298;2023-07-13T07:08:45;100947.72;;;18.42;44.28
43621;BME280;29213;50.770;7.298;2023-07-13T07:11:16;100916.81;;;18.18;44.27
43621;BME280;29213;50.770;7.298;2023-07-13T07:13:42;100931.34;;;18.43;44.27
43621;BME280;29213;50.770;7.298;2023-07-13T07:16:08;100925.31;;;18.48;43.70
43621;BME280;29213;50.770;7.298;2023-07-13T07:18:34;100933.00;;;18.58;43.20
43621;BME280;29213;50.770;7.298;2023-07-13T07:20:59;100963.69;;;18.91;43.53
43621;BME280;29213;50.770;7.298;2023-07-13T07:23:25;100907.91;;;18.58;43.41
43621;BME280;29213;50.770;7.298;2023-07-13T07:25:50;100969.44;;;19.08;43.10
43621;BME280;29213;50.770;7.298;2023-07-13T07:28:17;100951.19;;;19.03;42.83
43621;BME280;29213;50.770;7.298;2023-07-13T07:30:47;100970.22;;;19.29;42.95
43621;BME280;29213;50.770;7.298;2023-07-13T07:33:13;100976.22;;;19.31;42.07
43621;BME280;29213;50.770;7.298;2023-07-13T07:35:39;100971.25;;;19.34;41.85
43621;BME280;29213;50.770;7.298;2023-07-13T07:38:05;100840.50;;;18.58;41.54
43621;BME280;29213;50.770;7.298;2023-07-13T07:40:30;100881.50;;;18.87;41.87
43621;BME280;29213;50.770;7.298;2023-07-13T07:42:57;100944.66;;;19.38;41.97
43621;BME280;29213;50.770;7.298;2023-07-13T07:45:22;100878.91;;;19.05;42.30
43621;BME280;29213;50.770;7.298;2023-07-13T07:47:48;100847.66;;;18.91;42.05
43621;BME280;29213;50.770;7.298;2023-07-13T07:50:14;100934.63;;;19.52;40.50
43621;BME280;29213;50.770;7.298;2023-07-13T07:52:39;100929.66;;;19.49;40.06
43621;BME280;29213;50.770;7.298;2023-07-13T07:55:06;100964.00;;;19.74;40.24
43621;BME280;29213;50.770;7.298;2023-07-13T07:57:32;100968.94;;;19.84;39.92
43621;BME280;29213;50.770;7.298;2023-07-13T07:59:58;100965.75;;;19.94;39.74
43621;BME280;29213;50.770;7.298;2023-07-13T08:02:24;100936.69;;;19.89;40.25
43621;BME280;29213;50.770;7.298;2023-07-13T08:04:49;100963.84;;;20.08;40.10
43621;BME280;29213;50.770;7.298;2023-07-13T08:07:15;100932.63;;;20.05;40.33
43621;BME280;29213;50.770;7.298;2023-07-13T08:09:40;100963.00;;;20.33;40.38
43621;BME280;29213;50.770;7.298;2023-07-13T08:12:06;100956.56;;;20.34;40.21
43621;BME280;29213;50.770;7.298;2023-07-13T08:14:32;100969.09;;;20.53;40.05
43621;BME280;29213;50.770;7.298;2023-07-13T08:16:58;100968.44;;;20.58;39.53
43621;BME280;29213;50.770;7.298;2023-07-13T08:19:23;100937.84;;;20.32;38.14
43621;BME280;29213;50.770;7.298;2023-07-13T08:21:48;100925.22;;;20.26;39.23
43621;BME280;29213;50.770;7.298;2023-07-13T08:24:14;100962.63;;;20.54;39.05
43621;BME280;29213;50.770;7.298;2023-07-13T08:26:40;100960.06;;;20.60;38.72
43621;BME280;29213;50.770;7.298;2023-07-13T08:29:05;100918.63;;;20.40;38.23
43621;BME280;29213;50.770;7.298;2023-07-13T08:31:31;100926.84;;;20.52;38.87
43621;BME280;29213;50.770;7.298;2023-07-13T08:33:56;100915.19;;;20.52;38.13
43621;BME280;29213;50.770;7.298;2023-07-13T08:36:22;100954.06;;;20.83;38.29
43621;BME280;29213;50.770;7.298;2023-07-13T08:38:47;100917.59;;;20.86;38.35
43621;BME280;29213;50.770;7.298;2023-07-13T08:41:15;100959.53;;;21.32;38.73
43621;BME280;29213;50.770;7.298;2023-07-13T08:43:43;100960.19;;;21.46;39.34
43621;BME280;29213;50.770;7.298;2023-07-13T08:46:16;100865.78;;;21.01;38.09
43621;BME280;29213;50.770;7.298;2023-07-13T08:49:11;100950.53;;;21.69;37.98
43621;BME280;29213;50.770;7.298;2023-07-13T08:51:40;100954.59;;;21.79;37.75
43621;BME280;29213;50.770;7.298;2023-07-13T08:54:24;100937.88;;;21.94;38.13
43621;BME280;29213;50.770;7.298;2023-07-13T08:56:53;100874.31;;;21.66;38.21
43621;BME280;29213;50.770;7.298;2023-07-13T08:59:22;100919.19;;;22.04;37.01
43621;BME280;29213;50.770;7.298;2023-07-13T09:04:42;100950.97;;;22.39;36.77
43621;BME280;29213;50.770;7.298;2023-07-13T09:10:28;100945.19;;;22.72;35.59
43621;BME280;29213;50.770;7.298;2023-07-13T09:12:57;100952.03;;;22.74;36.96
43621;BME280;29213;50.770;7.298;2023-07-13T09:15:31;100889.63;;;22.50;35.50
43621;BME280;29213;50.770;7.298;2023-07-13T09:18:14;100943.16;;;23.03;35.77
43621;BME280;29213;50.770;7.298;2023-07-13T09:20:46;100915.88;;;22.86;35.90
43621;BME280;29213;50.770;7.298;2023-07-13T09:23:20;100944.47;;;23.00;35.71
43621;BME280;29213;50.770;7.298;2023-07-13T09:25:48;100942.00;;;22.99;34.59
43621;BME280;29213;50.770;7.298;2023-07-13T09:28:28;100943.00;;;23.10;34.66
43621;BME280;29213;50.770;7.298;2023-07-13T09:33:28;100913.75;;;23.00;34.46
43621;BME280;29213;50.770;7.298;2023-07-13T09:35:59;100946.22;;;23.06;35.12
43621;BME280;29213;50.770;7.298;2023-07-13T09:38:26;100950.97;;;22.99;35.12
43621;BME280;29213;50.770;7.298;2023-07-13T09:41:13;100942.91;;;23.04;35.48
43621;BME280;29213;50.770;7.298;2023-07-13T09:46:34;100938.00;;;23.30;34.62
43621;BME280;29213;50.770;7.298;2023-07-13T09:48:59;100867.50;;;22.83;34.69
43621;BME280;29213;50.770;7.298;2023-07-13T09:51:25;100913.31;;;23.03;33.74
43621;BME280;29213;50.770;7.298;2023-07-13T09:53:50;100893.25;;;22.80;34.35
43621;BME280;29213;50.770;7.298;2023-07-13T09:56:24;100949.31;;;22.98;34.14
43621;BME280;29213;50.770;7.298;2023-07-13T09:58:51;100936.53;;;22.87;35.01
43621;BME280;29213;50.770;7.298;2023-07-13T10:01:33;100883.00;;;22.46;34.45
43621;BME280;29213;50.770;7.298;2023-07-13T10:03:58;100902.25;;;22.45;34.44
43621;BME280;29213;50.770;7.298;2023-07-13T10:06:24;100840.75;;;22.02;34.11
43621;BME280;29213;50.770;7.298;2023-07-13T10:08:52;100943.16;;;22.79;34.43
43621;BME280;29213;50.770;7.298;2023-07-13T10:11:26;100953.41;;;23.13;33.54
43621;BME280;29213;50.770;7.298;2023-07-13T10:14:13;100900.91;;;22.95;33.08
43621;BME280;29213;50.770;7.298;2023-07-13T10:16:41;100903.28;;;22.79;32.79
43621;BME280;29213;50.770;7.298;2023-07-13T10:21:53;100932.06;;;22.80;33.75
43621;BME280;29213;50.770;7.298;2023-07-13T10:24:22;100909.53;;;22.56;33.56
43621;BME280;29213;50.770;7.298;2023-07-13T10:27:05;100951.91;;;22.81;35.22
43621;BME280;29213;50.770;7.298;2023-07-13T10:29:37;100914.03;;;22.74;34.12
43621;BME280;29213;50.770;7.298;2023-07-13T10:32:10;100950.47;;;22.90;33.71
43621;BME280;29213;50.770;7.298;2023-07-13T10:34:36;100952.13;;;22.79;34.10
43621;BME280;29213;50.770;7.298;2023-07-13T10:37:02;100949.06;;;22.76;34.04
43621;BME280;29213;50.770;7.298;2023-07-13T10:39:30;100930.53;;;22.73;34.46
43621;BME280;29213;50.770;7.298;2023-07-13T10:42:03;100935.25;;;23.01;34.96
43621;BME280;29213;50.770;7.298;2023-07-13T10:44:32;100866.53;;;23.01;35.60
43621;BME280;29213;50.770;7.298;2023-07-13T10:47:04;100945.47;;;23.64;34.66
43621;BME280;29213;50.770;7.298;2023-07-13T10:49:33;100959.22;;;23.45;33.82
43621;BME280;29213;50.770;7.298;2023-07-13T10:52:00;100925.44;;;22.88;33.28
43621;BME280;29213;50.770;7.298;2023-07-13T10:59:35;100920.28;;;22.63;34.18
43621;BME280;29213;50.770;7.298;2023-07-13T11:04:40;100935.25;;;22.89;34.07
43621;BME280;29213;50.770;7.298;2023-07-13T11:07:19;100936.69;;;22.80;33.06
43621;BME280;29213;50.770;7.298;2023-07-13T11:09:50;100971.16;;;22.91;33.44
43621;BME280;29213;50.770;7.298;2023-07-13T11:27:46;100937.78;;;22.43;34.00
43621;BME280;29213;50.770;7.298;2023-07-13T11:33:14;100971.03;;;22.50;34.54
43621;BME280;29213;50.770;7.298;2023-07-13T11:35:57;100971.50;;;22.47;34.52
43621;BME280;29213;50.770;7.298;2023-07-13T11:38:40;100973.03;;;22.31;34.08
43621;BME280;29213;50.770;7.298;2023-07-13T11:43:42;100979.44;;;22.18;33.00
43621;BME280;29213;50.770;7.298;2023-07-13T11:48:39;100962.63;;;21.85;33.62
43621;BME280;29213;50.770;7.298;2023-07-13T11:51:07;100982.38;;;22.05;33.11
43621;BME280;29213;50.770;7.298;2023-07-13T11:53:49;100976.69;;;21.94;32.32
43621;BME280;29213;50.770;7.298;2023-07-13T11:56:15;100917.22;;;21.50;32.41
43621;BME280;29213;50.770;7.298;2023-07-13T11:58:41;100951.97;;;21.72;32.83
43621;BME280;29213;50.770;7.298;2023-07-13T12:01:18;100973.63;;;21.91;32.45
43621;BME280;29213;50.770;7.298;2023-07-13T12:03:45;100968.66;;;21.87;31.99
43621;BME280;29213;50.770;7.298;2023-07-13T12:06:27;100978.34;;;21.95;32.09
43621;BME280;29213;50.770;7.298;2023-07-13T12:08:56;100954.94;;;21.82;32.29
43621;BME280;29213;50.770;7.298;2023-07-13T12:11:22;100944.19;;;21.75;32.92
43621;BME280;29213;50.770;7.298;2023-07-13T12:13:47;100985.31;;;22.03;32.75
43621;BME280;29213;50.770;7.298;2023-07-13T12:16:29;100909.69;;;21.52;32.16
43621;BME280;29213;50.770;7.298;2023-07-13T12:18:56;100951.53;;;21.75;32.15
43621;BME280;29213;50.770;7.298;2023-07-13T12:21:33;100944.19;;;21.75;32.15
43621;BME280;29213;50.770;7.298;2023-07-13T12:24:00;100990.50;;;22.05;32.53
43621;BME280;29213;50.770;7.298;2023-07-13T12:26:28;100984.72;;;22.01;32.26
43621;BME280;29213;50.770;7.298;2023-07-13T12:28:55;100960.00;;;21.79;32.40
43621;BME280;29213;50.770;7.298;2023-07-13T12:31:34;100973.47;;;21.85;31.83
43621;BME280;29213;50.770;7.298;2023-07-13T12:34:03;100966.78;;;21.88;32.52
43621;BME280;29213;50.770;7.298;2023-07-13T12:36:34;100983.91;;;22.00;32.61
43621;BME280;29213;50.770;7.298;2023-07-13T12:39:12;100979.31;;;22.01;32.72
43621;BME280;29213;50.770;7.298;2023-07-13T12:41:38;100999.03;;;22.20;32.91
43621;BME280;29213;50.770;7.298;2023-07-13T12:44:09;100939.88;;;21.86;32.62
43621;BME280;29213;50.770;7.298;2023-07-13T12:46:37;100999.50;;;22.17;32.54
43621;BME280;29213;50.770;7.298;2023-07-13T12:49:06;100958.50;;;21.83;32.15
43621;BME280;29213;50.770;7.298;2023-07-13T12:51:32;100986.81;;;21.87;32.63
43621;BME280;29213;50.770;7.298;2023-07-13T12:54:10;101013.94;;;21.99;32.87
43621;BME280;29213;50.770;7.298;2023-07-13T12:56:38;101002.94;;;21.82;32.95
43621;BME280;29213;50.770;7.298;2023-07-13T12:59:04;100990.47;;;21.62;33.43
43621;BME280;29213;50.770;7.298;2023-07-13T13:01:34;101002.94;;;21.82;34.06
43621;BME280;29213;50.770;7.298;2023-07-13T13:04:03;100957.97;;;21.43;33.71
43621;BME280;29213;50.770;7.298;2023-07-13T13:06:34;101000.31;;;21.75;33.93
43621;BME280;29213;50.770;7.298;2023-07-13T13:09:01;100991.13;;;21.76;35.08
43621;BME280;29213;50.770;7.298;2023-07-13T13:11:31;101007.72;;;21.98;35.72
43621;BME280;29213;50.770;7.298;2023-07-13T13:13:57;100959.44;;;21.77;36.01
43621;BME280;29213;50.770;7.298;2023-07-13T13:16:34;100941.00;;;21.67;35.48
43621;BME280;29213;50.770;7.298;2023-07-13T13:19:29;100987.91;;;21.98;34.07
43621;BME280;29213;50.770;7.298;2023-07-13T13:21:56;101010.66;;;22.09;34.74
43621;BME280;29213;50.770;7.298;2023-07-13T13:24:25;101013.38;;;22.09;34.67
43621;BME280;29213;50.770;7.298;2023-07-13T13:26:52;101012.56;;;22.08;34.17
43621;BME280;29213;50.770;7.298;2023-07-13T13:29:24;101014.34;;;22.14;34.83
43621;BME280;29213;50.770;7.298;2023-07-13T13:31:50;100997.50;;;22.12;34.96
43621;BME280;29213;50.770;7.298;2023-07-13T13:34:17;100991.59;;;22.15;34.97
43621;BME280;29213;50.770;7.298;2023-07-13T13:36:44;100997.22;;;22.33;34.45
43621;BME280;29213;50.770;7.298;2023-07-13T13:39:24;100974.25;;;22.17;35.36
43621;BME280;29213;50.770;7.298;2023-07-13T13:41:52;101009.97;;;22.44;33.68